sensor_id;sensor_type;location;lat;lon;timestamp;pressure;altitude;pressure_sealevel;temperature;humidity
72961;BME280;61141;46.204;19.774;2022-07-23T00:02:33;100328.19;;;21.79;45.97
72961;BME280;61141;46.204;19.774;2022-07-23T00:05:36;100332.22;;;21.78;46.22
72961;BME280;61141;46.204;19.774;2022-07-23T00:08:39;100338.37;;;21.73;46.59
72961;BME280;61141;46.204;19.774;2022-07-23T00:11:42;100344.38;;;21.72;46.75
72961;BME280;61141;46.204;19.774;2022-07-23T00:14:45;100343.03;;;21.63;46.93
72961;BME280;61141;46.204;19.774;2022-07-23T00:17:48;100352.06;;;21.55;47.14
72961;BME280;61141;46.204;19.774;2022-07-23T00:20:51;100345.41;;;21.65;46.85
72961;BME280;61141;46.204;19.774;2022-07-23T00:23:54;100355.22;;;21.70;46.40
72961;BME280;61141;46.204;19.774;2022-07-23T00:26:57;100351.19;;;21.83;45.52
72961;BME280;61141;46.204;19.774;2022-07-23T00:30:00;100345.50;;;21.74;45.98
72961;BME280;61141;46.204;19.774;2022-07-23T00:33:06;100341.25;;;21.70;46.11
72961;BME280;61141;46.204;19.774;2022-07-23T00:36:09;100346.50;;;21.67;45.91
72961;BME280;61141;46.204;19.774;2022-07-23T00:39:12;100341.03;;;21.77;45.23
72961;BME280;61141;46.204;19.774;2022-07-23T00:42:15;100342.84;;;21.71;46.18
72961;BME280;61141;46.204;19.774;2022-07-23T00:45:18;100338.69;;;21.75;45.09
72961;BME280;61141;46.204;19.774;2022-07-23T00:48:21;100332.88;;;21.82;44.69
72961;BME280;61141;46.204;19.774;2022-07-23T00:51:24;100328.44;;;21.59;45.56
72961;BME280;61141;46.204;19.774;2022-07-23T00:54:28;100322.41;;;21.61;45.54
72961;BME280;61141;46.204;19.774;2022-07-23T00:57:31;100321.25;;;21.46;46.51
72961;BME280;61141;46.204;19.774;2022-07-23T01:00:34;100316.59;;;21.43;47.15
72961;BME280;61141;46.204;19.774;2022-07-23T01:03:36;100312.56;;;21.31;47.13
72961;BME280;61141;46.204;19.774;2022-07-23T01:06:40;100324.13;;;21.17;46.91
72961;BME280;61141;46.204;19.774;2022-07-23T01:09:44;100303.41;;;21.02;47.50
72961;BME280;61141;46.204;19.774;2022-07-23T01:12:48;100293.81;;;20.90;47.60
72961;BME280;61141;46.204;19.774;2022-07-23T01:15:50;100316.44;;;20.92;47.56
72961;BME280;61141;46.204;19.774;2022-07-23T01:18:53;100304.16;;;20.90;47.69
72961;BME280;61141;46.204;19.774;2022-07-23T01:21:58;100317.31;;;20.89;48.34
72961;BME280;61141;46.204;19.774;2022-07-23T01:25:01;100317.16;;;20.80;49.10
72961;BME280;61141;46.204;19.774;2022-07-23T01:28:04;100318.28;;;20.83;48.69
72961;BME280;61141;46.204;19.774;2022-07-23T01:31:07;100300.50;;;20.93;47.58
72961;BME280;61141;46.204;19.774;2022-07-23T01:34:10;100315.09;;;20.97;47.45
72961;BME280;61141;46.204;19.774;2022-07-23T01:37:13;100308.75;;;20.96;47.53
72961;BME280;61141;46.204;19.774;2022-07-23T01:40:16;100310.94;;;20.89;48.18
72961;BME280;61141;46.204;19.774;2022-07-23T01:43:21;100315.53;;;20.67;48.79
72961;BME280;61141;46.204;19.774;2022-07-23T01:46:26;100312.91;;;20.76;49.24
72961;BME280;61141;46.204;19.774;2022-07-23T01:49:30;100309.78;;;20.74;48.94
72961;BME280;61141;46.204;19.774;2022-07-23T01:52:33;100307.12;;;20.83;49.08
72961;BME280;61141;46.204;19.774;2022-07-23T01:55:36;100300.28;;;20.71;49.17
72961;BME280;61141;46.204;19.774;2022-07-23T01:58:39;100310.84;;;20.64;48.55
72961;BME280;61141;46.204;19.774;2022-07-23T02:01:43;100297.97;;;20.70;48.14
72961;BME280;61141;46.204;19.774;2022-07-23T02:04:46;100307.53;;;20.69;47.83
72961;BME280;61141;46.204;19.774;2022-07-23T02:07:50;100307.81;;;20.58;48.36
72961;BME280;61141;46.204;19.774;2022-07-23T02:10:53;100306.34;;;20.54;48.86
72961;BME280;61141;46.204;19.774;2022-07-23T02:13:56;100307.47;;;20.56;48.77
72961;BME280;61141;46.204;19.774;2022-07-23T02:16:59;100310.97;;;20.44;48.84
72961;BME280;61141;46.204;19.774;2022-07-23T02:20:02;100302.72;;;20.40;49.08
72961;BME280;61141;46.204;19.774;2022-07-23T02:23:05;100297.50;;;20.42;48.94
72961;BME280;61141;46.204;19.774;2022-07-23T02:26:09;100295.50;;;20.43;49.02
72961;BME280;61141;46.204;19.774;2022-07-23T02:29:12;100296.03;;;20.38;49.04
72961;BME280;61141;46.204;19.774;2022-07-23T02:32:15;100280.87;;;20.39;48.64
72961;BME280;61141;46.204;19.774;2022-07-23T02:35:18;100300.44;;;20.35;48.87
72961;BME280;61141;46.204;19.774;2022-07-23T02:38:21;100285.66;;;20.22;49.26
72961;BME280;61141;46.204;19.774;2022-07-23T02:41:24;100291.75;;;20.17;49.62
72961;BME280;61141;46.204;19.774;2022-07-23T02:44:27;100271.75;;;20.06;49.55
72961;BME280;61141;46.204;19.774;2022-07-23T02:47:31;100299.44;;;20.29;49.22
72961;BME280;61141;46.204;19.774;2022-07-23T02:50:35;100300.09;;;20.17;49.86
72961;BME280;61141;46.204;19.774;2022-07-23T02:53:38;100297.91;;;20.09;49.83
72961;BME280;61141;46.204;19.774;2022-07-23T02:56:43;100302.53;;;19.99;50.30
72961;BME280;61141;46.204;19.774;2022-07-23T02:59:46;100302.16;;;19.97;50.33
72961;BME280;61141;46.204;19.774;2022-07-23T03:02:49;100304.19;;;20.13;49.58
72961;BME280;61141;46.204;19.774;2022-07-23T03:05:52;100313.41;;;20.10;49.94
72961;BME280;61141;46.204;19.774;2022-07-23T03:08:55;100311.66;;;20.16;50.36
72961;BME280;61141;46.204;19.774;2022-07-23T03:11:58;100316.53;;;20.28;50.45
72961;BME280;61141;46.204;19.774;2022-07-23T03:15:01;100311.94;;;20.21;50.52
72961;BME280;61141;46.204;19.774;2022-07-23T03:18:04;100312.44;;;20.00;51.24
72961;BME280;61141;46.204;19.774;2022-07-23T03:21:07;100311.50;;;19.90;51.64
72961;BME280;61141;46.204;19.774;2022-07-23T03:24:12;100315.66;;;19.82;51.74
72961;BME280;61141;46.204;19.774;2022-07-23T03:27:15;100316.06;;;19.81;51.88
72961;BME280;61141;46.204;19.774;2022-07-23T03:30:18;100311.28;;;19.81;52.04
72961;BME280;61141;46.204;19.774;2022-07-23T03:33:21;100308.59;;;19.94;51.33
72961;BME280;61141;46.204;19.774;2022-07-23T03:36:24;100317.22;;;20.00;51.31
72961;BME280;61141;46.204;19.774;2022-07-23T03:39:29;100314.94;;;19.94;51.31
72961;BME280;61141;46.204;19.774;2022-07-23T03:42:31;100320.16;;;19.92;51.44
72961;BME280;61141;46.204;19.774;2022-07-23T03:45:37;100309.50;;;19.91;51.19
72961;BME280;61141;46.204;19.774;2022-07-23T03:48:40;100320.97;;;20.09;50.80
72961;BME280;61141;46.204;19.774;2022-07-23T03:51:43;100320.69;;;20.20;51.16
72961;BME280;61141;46.204;19.774;2022-07-23T03:54:47;100323.47;;;20.20;51.58
72961;BME280;61141;46.204;19.774;2022-07-23T03:57:50;100321.63;;;20.13;51.99
72961;BME280;61141;46.204;19.774;2022-07-23T04:00:53;100325.47;;;20.19;51.67
72961;BME280;61141;46.204;19.774;2022-07-23T04:03:56;100326.88;;;20.27;51.09
72961;BME280;61141;46.204;19.774;2022-07-23T04:06:59;100331.22;;;20.12;51.53
72961;BME280;61141;46.204;19.774;2022-07-23T04:10:04;100333.16;;;20.31;51.15
72961;BME280;61141;46.204;19.774;2022-07-23T04:13:07;100332.53;;;20.56;50.63
72961;BME280;61141;46.204;19.774;2022-07-23T04:16:11;100333.53;;;20.78;50.41
72961;BME280;61141;46.204;19.774;2022-07-23T04:19:14;100327.88;;;20.82;50.55
72961;BME280;61141;46.204;19.774;2022-07-23T04:22:19;100320.19;;;20.86;50.84
72961;BME280;61141;46.204;19.774;2022-07-23T04:25:21;100314.69;;;20.98;50.75
72961;BME280;61141;46.204;19.774;2022-07-23T04:28:25;100320.31;;;21.11;50.47
72961;BME280;61141;46.204;19.774;2022-07-23T04:31:28;100317.44;;;21.27;50.34
72961;BME280;61141;46.204;19.774;2022-07-23T04:34:38;100317.94;;;21.51;49.68
72961;BME280;61141;46.204;19.774;2022-07-23T04:37:42;100322.34;;;21.90;48.75
72961;BME280;61141;46.204;19.774;2022-07-23T04:40:45;100322.88;;;22.10;48.19
72961;BME280;61141;46.204;19.774;2022-07-23T04:43:48;100322.03;;;22.47;47.58
72961;BME280;61141;46.204;19.774;2022-07-23T04:46:51;100317.75;;;22.55;47.60
72961;BME280;61141;46.204;19.774;2022-07-23T04:49:56;100325.63;;;22.82;47.23
72961;BME280;61141;46.204;19.774;2022-07-23T04:52:59;100325.63;;;23.04;47.00
72961;BME280;61141;46.204;19.774;2022-07-23T04:56:03;100323.00;;;23.31;46.85
72961;BME280;61141;46.204;19.774;2022-07-23T04:59:06;100319.44;;;23.52;46.76
72961;BME280;61141;46.204;19.774;2022-07-23T05:02:09;100317.25;;;23.87;45.65
72961;BME280;61141;46.204;19.774;2022-07-23T05:05:12;100316.47;;;24.26;44.81
72961;BME280;61141;46.204;19.774;2022-07-23T05:08:15;100318.09;;;24.54;44.77
72961;BME280;61141;46.204;19.774;2022-07-23T05:11:18;100294.72;;;24.67;44.13
72961;BME280;61141;46.204;19.774;2022-07-23T05:14:28;100314.84;;;24.92;44.18
72961;BME280;61141;46.204;19.774;2022-07-23T05:17:31;100315.31;;;25.09;43.97
72961;BME280;61141;46.204;19.774;2022-07-23T05:20:34;100293.16;;;25.11;44.02
72961;BME280;61141;46.204;19.774;2022-07-23T05:23:37;100310.44;;;25.28;43.57
72961;BME280;61141;46.204;19.774;2022-07-23T05:26:40;100315.41;;;25.51;43.25
72961;BME280;61141;46.204;19.774;2022-07-23T05:29:43;100316.22;;;25.84;42.47
72961;BME280;61141;46.204;19.774;2022-07-23T05:32:46;100317.03;;;26.08;42.73
72961;BME280;61141;46.204;19.774;2022-07-23T05:35:50;100315.09;;;26.23;42.49
72961;BME280;61141;46.204;19.774;2022-07-23T05:38:53;100327.94;;;26.63;41.98
72961;BME280;61141;46.204;19.774;2022-07-23T05:41:57;100329.22;;;27.00;41.29
72961;BME280;61141;46.204;19.774;2022-07-23T05:45:00;100328.56;;;27.34;40.95
72961;BME280;61141;46.204;19.774;2022-07-23T05:48:04;100312.31;;;27.53;39.97
72961;BME280;61141;46.204;19.774;2022-07-23T05:51:08;100329.53;;;27.90;39.55
72961;BME280;61141;46.204;19.774;2022-07-23T05:54:11;100340.75;;;28.19;38.24
72961;BME280;61141;46.204;19.774;2022-07-23T05:57:14;100342.75;;;28.53;37.46
72961;BME280;61141;46.204;19.774;2022-07-23T06:00:17;100340.50;;;28.78;34.18
72961;BME280;61141;46.204;19.774;2022-07-23T06:03:23;100342.91;;;29.05;34.22
72961;BME280;61141;46.204;19.774;2022-07-23T06:06:27;100336.16;;;29.23;33.51
72961;BME280;61141;46.204;19.774;2022-07-23T06:09:30;100346.16;;;29.44;33.19
72961;BME280;61141;46.204;19.774;2022-07-23T06:12:33;100343.16;;;29.58;30.29
72961;BME280;61141;46.204;19.774;2022-07-23T06:15:36;100360.25;;;29.75;30.35
72961;BME280;61141;46.204;19.774;2022-07-23T06:18:39;100334.16;;;29.54;29.87
72961;BME280;61141;46.204;19.774;2022-07-23T06:21:42;100334.56;;;29.73;30.29
72961;BME280;61141;46.204;19.774;2022-07-23T06:24:49;100358.16;;;29.96;30.47
72961;BME280;61141;46.204;19.774;2022-07-23T06:27:54;100356.69;;;30.06;30.42
72961;BME280;61141;46.204;19.774;2022-07-23T06:30:57;100353.41;;;30.13;30.52
72961;BME280;61141;46.204;19.774;2022-07-23T06:34:00;100352.72;;;30.29;30.24
72961;BME280;61141;46.204;19.774;2022-07-23T06:37:03;100345.63;;;30.45;29.93
72961;BME280;61141;46.204;19.774;2022-07-23T06:40:07;100343.69;;;30.67;29.65
72961;BME280;61141;46.204;19.774;2022-07-23T06:43:10;100351.41;;;30.72;29.99
72961;BME280;61141;46.204;19.774;2022-07-23T06:46:13;100349.16;;;30.82;29.63
72961;BME280;61141;46.204;19.774;2022-07-23T06:49:16;100352.81;;;30.94;29.81
72961;BME280;61141;46.204;19.774;2022-07-23T06:52:19;100338.16;;;31.01;29.84
72961;BME280;61141;46.204;19.774;2022-07-23T06:55:22;100357.50;;;31.13;29.79
72961;BME280;61141;46.204;19.774;2022-07-23T06:58:25;100346.94;;;31.14;29.93
72961;BME280;61141;46.204;19.774;2022-07-23T07:01:28;100351.88;;;31.35;29.73
72961;BME280;61141;46.204;19.774;2022-07-23T07:04:31;100353.47;;;31.59;29.23
72961;BME280;61141;46.204;19.774;2022-07-23T07:07:34;100347.81;;;31.75;27.91
72961;BME280;61141;46.204;19.774;2022-07-23T07:10:37;100345.47;;;31.90;27.95
72961;BME280;61141;46.204;19.774;2022-07-23T07:13:40;100343.41;;;32.08;27.58
72961;BME280;61141;46.204;19.774;2022-07-23T07:16:43;100346.47;;;32.26;25.00
72961;BME280;61141;46.204;19.774;2022-07-23T07:19:46;100333.06;;;32.32;25.58
72961;BME280;61141;46.204;19.774;2022-07-23T07:22:49;100345.37;;;32.51;24.91
72961;BME280;61141;46.204;19.774;2022-07-23T07:25:52;100336.09;;;32.57;24.87
72961;BME280;61141;46.204;19.774;2022-07-23T07:28:55;100346.09;;;32.74;24.13
72961;BME280;61141;46.204;19.774;2022-07-23T07:31:58;100338.03;;;32.78;23.67
72961;BME280;61141;46.204;19.774;2022-07-23T07:35:00;100340.84;;;32.84;24.26
72961;BME280;61141;46.204;19.774;2022-07-23T07:38:03;100340.00;;;33.11;24.18
72961;BME280;61141;46.204;19.774;2022-07-23T07:41:06;100337.34;;;33.19;23.63
72961;BME280;61141;46.204;19.774;2022-07-23T07:44:10;100340.84;;;33.36;23.92
72961;BME280;61141;46.204;19.774;2022-07-23T07:47:13;100343.56;;;33.58;23.43
72961;BME280;61141;46.204;19.774;2022-07-23T07:50:18;100333.53;;;33.81;23.69
72961;BME280;61141;46.204;19.774;2022-07-23T07:53:21;100335.19;;;33.95;23.60
72961;BME280;61141;46.204;19.774;2022-07-23T07:56:27;100337.62;;;34.15;23.55
72961;BME280;61141;46.204;19.774;2022-07-23T07:59:30;100333.72;;;34.18;23.80
72961;BME280;61141;46.204;19.774;2022-07-23T08:02:46;100330.09;;;34.18;23.85
72961;BME280;61141;46.204;19.774;2022-07-23T08:05:49;100327.06;;;34.35;23.86
72961;BME280;61141;46.204;19.774;2022-07-23T08:08:52;100328.00;;;34.43;23.75
72961;BME280;61141;46.204;19.774;2022-07-23T08:11:55;100325.59;;;34.47;23.63
72961;BME280;61141;46.204;19.774;2022-07-23T08:14:57;100320.22;;;34.67;23.25
72961;BME280;61141;46.204;19.774;2022-07-23T08:18:00;100320.22;;;34.86;23.15
72961;BME280;61141;46.204;19.774;2022-07-23T08:21:03;100314.50;;;35.05;23.02
72961;BME280;61141;46.204;19.774;2022-07-23T08:24:09;100308.81;;;35.05;22.76
72961;BME280;61141;46.204;19.774;2022-07-23T08:27:12;100308.28;;;35.25;22.90
72961;BME280;61141;46.204;19.774;2022-07-23T08:30:15;100310.09;;;35.09;22.66
72961;BME280;61141;46.204;19.774;2022-07-23T08:33:19;100309.25;;;35.46;22.31
72961;BME280;61141;46.204;19.774;2022-07-23T08:36:36;100306.94;;;35.45;21.93
72961;BME280;61141;46.204;19.774;2022-07-23T08:39:39;100299.84;;;35.51;22.07
72961;BME280;61141;46.204;19.774;2022-07-23T08:42:42;100297.44;;;35.55;21.67
72961;BME280;61141;46.204;19.774;2022-07-23T08:45:47;100297.19;;;35.53;21.54
72961;BME280;61141;46.204;19.774;2022-07-23T08:48:50;100292.22;;;35.72;21.68
72961;BME280;61141;46.204;19.774;2022-07-23T08:51:54;100298.13;;;36.06;20.91
72961;BME280;61141;46.204;19.774;2022-07-23T08:54:57;100298.44;;;36.29;20.67
72961;BME280;61141;46.204;19.774;2022-07-23T08:58:01;100288.25;;;36.20;19.99
72961;BME280;61141;46.204;19.774;2022-07-23T09:01:04;100290.75;;;36.37;19.70
72961;BME280;61141;46.204;19.774;2022-07-23T09:04:07;100283.41;;;36.55;18.86
72961;BME280;61141;46.204;19.774;2022-07-23T09:07:10;100285.91;;;36.58;17.07
72961;BME280;61141;46.204;19.774;2022-07-23T09:10:13;100271.47;;;36.77;18.49
72961;BME280;61141;46.204;19.774;2022-07-23T09:16:54;100283.38;;;37.15;16.74
72961;BME280;61141;46.204;19.774;2022-07-23T09:20:08;100279.59;;;37.40;16.90
72961;BME280;61141;46.204;19.774;2022-07-23T09:23:11;100281.16;;;37.41;15.62
72961;BME280;61141;46.204;19.774;2022-07-23T09:29:33;100281.72;;;37.60;16.92
72961;BME280;61141;46.204;19.774;2022-07-23T09:32:35;100283.81;;;37.39;17.31
72961;BME280;61141;46.204;19.774;2022-07-23T09:38:49;100275.56;;;37.56;16.86
72961;BME280;61141;46.204;19.774;2022-07-23T09:41:53;100279.72;;;38.25;16.51
72961;BME280;61141;46.204;19.774;2022-07-23T09:44:57;100275.41;;;38.39;16.35
72961;BME280;61141;46.204;19.774;2022-07-23T09:48:30;100272.94;;;38.36;16.54
72961;BME280;61141;46.204;19.774;2022-07-23T09:51:43;100269.28;;;38.35;15.72
72961;BME280;61141;46.204;19.774;2022-07-23T09:54:46;100272.34;;;38.37;15.16
72961;BME280;61141;46.204;19.774;2022-07-23T09:57:49;100275.25;;;38.45;15.51
72961;BME280;61141;46.204;19.774;2022-07-23T10:00:58;100277.16;;;38.86;15.31
72961;BME280;61141;46.204;19.774;2022-07-23T10:04:01;100281.75;;;38.89;15.47
72961;BME280;61141;46.204;19.774;2022-07-23T10:07:07;100273.09;;;38.02;15.95
72961;BME280;61141;46.204;19.774;2022-07-23T10:10:17;100277.59;;;38.26;15.42
72961;BME280;61141;46.204;19.774;2022-07-23T10:13:21;100265.34;;;38.46;15.41
72961;BME280;61141;46.204;19.774;2022-07-23T10:16:45;100267.22;;;38.79;15.16
72961;BME280;61141;46.204;19.774;2022-07-23T10:19:47;100260.56;;;38.99;14.92
72961;BME280;61141;46.204;19.774;2022-07-23T10:23:02;100252.75;;;39.00;14.90
72961;BME280;61141;46.204;19.774;2022-07-23T10:30:06;100251.44;;;38.57;14.77
72961;BME280;61141;46.204;19.774;2022-07-23T10:33:27;100257.37;;;39.33;14.21
72961;BME280;61141;46.204;19.774;2022-07-23T10:36:47;100249.56;;;39.56;14.00
72961;BME280;61141;46.204;19.774;2022-07-23T10:43:15;100238.84;;;39.34;13.73
72961;BME280;61141;46.204;19.774;2022-07-23T10:46:24;100233.13;;;39.34;13.73
72961;BME280;61141;46.204;19.774;2022-07-23T10:49:44;100239.63;;;39.65;13.93
72961;BME280;61141;46.204;19.774;2022-07-23T10:56:13;100237.13;;;39.61;13.34
72961;BME280;61141;46.204;19.774;2022-07-23T10:59:16;100217.63;;;39.45;13.18
72961;BME280;61141;46.204;19.774;2022-07-23T11:02:23;100238.09;;;39.64;13.42
72961;BME280;61141;46.204;19.774;2022-07-23T11:05:40;100229.47;;;39.56;13.67
72961;BME280;61141;46.204;19.774;2022-07-23T11:08:44;100223.09;;;38.97;13.97
72961;BME280;61141;46.204;19.774;2022-07-23T11:11:47;100218.72;;;39.11;13.75
72961;BME280;61141;46.204;19.774;2022-07-23T11:18:08;100198.69;;;39.79;13.25
72961;BME280;61141;46.204;19.774;2022-07-23T11:24:26;100197.25;;;40.03;13.06
72961;BME280;61141;46.204;19.774;2022-07-23T11:27:43;100193.44;;;40.01;12.92
72961;BME280;61141;46.204;19.774;2022-07-23T11:30:47;100195.19;;;39.88;13.31
72961;BME280;61141;46.204;19.774;2022-07-23T11:37:37;100186.56;;;40.43;13.19
72961;BME280;61141;46.204;19.774;2022-07-23T11:40:43;100172.87;;;40.27;12.91
72961;BME280;61141;46.204;19.774;2022-07-23T11:43:50;100190.75;;;40.03;12.97
72961;BME280;61141;46.204;19.774;2022-07-23T11:46:58;100172.31;;;39.20;12.88
72961;BME280;61141;46.204;19.774;2022-07-23T11:50:03;100169.41;;;39.58;12.95
72961;BME280;61141;46.204;19.774;2022-07-23T11:53:08;100162.91;;;39.50;12.88
72961;BME280;61141;46.204;19.774;2022-07-23T11:56:11;100155.75;;;40.04;12.78
72961;BME280;61141;46.204;19.774;2022-07-23T11:59:15;100155.69;;;40.19;12.64
72961;BME280;61141;46.204;19.774;2022-07-23T12:02:20;100167.38;;;40.14;12.73
72961;BME280;61141;46.204;19.774;2022-07-23T12:05:29;100147.06;;;39.64;13.14
72961;BME280;61141;46.204;19.774;2022-07-23T12:08:32;100144.25;;;40.12;13.33
72961;BME280;61141;46.204;19.774;2022-07-23T12:11:35;100143.22;;;40.64;13.08
72961;BME280;61141;46.204;19.774;2022-07-23T12:14:50;100140.81;;;40.45;12.71
72961;BME280;61141;46.204;19.774;2022-07-23T12:17:54;100147.41;;;40.71;12.25
72961;BME280;61141;46.204;19.774;2022-07-23T12:20:57;100136.81;;;40.01;12.98
72961;BME280;61141;46.204;19.774;2022-07-23T12:24:06;100133.00;;;39.99;13.25
72961;BME280;61141;46.204;19.774;2022-07-23T12:27:11;100126.25;;;40.43;13.00
72961;BME280;61141;46.204;19.774;2022-07-23T12:30:22;100131.34;;;40.28;13.37
72961;BME280;61141;46.204;19.774;2022-07-23T12:36:37;100121.94;;;40.67;12.96
72961;BME280;61141;46.204;19.774;2022-07-23T12:39:41;100108.13;;;40.33;12.93
72961;BME280;61141;46.204;19.774;2022-07-23T12:42:46;100112.84;;;40.54;13.13
72961;BME280;61141;46.204;19.774;2022-07-23T12:49:05;100113.34;;;40.27;13.58
72961;BME280;61141;46.204;19.774;2022-07-23T12:52:16;100114.94;;;40.78;13.03
72961;BME280;61141;46.204;19.774;2022-07-23T12:55:27;100101.94;;;40.12;13.03
72961;BME280;61141;46.204;19.774;2022-07-23T12:58:49;100118.53;;;40.61;12.99
72961;BME280;61141;46.204;19.774;2022-07-23T13:01:55;100103.84;;;40.74;12.94
72961;BME280;61141;46.204;19.774;2022-07-23T13:05:00;100095.63;;;40.46;12.98
72961;BME280;61141;46.204;19.774;2022-07-23T13:08:04;100094.84;;;40.45;12.91
72961;BME280;61141;46.204;19.774;2022-07-23T13:11:09;100095.34;;;40.84;12.76
72961;BME280;61141;46.204;19.774;2022-07-23T13:14:13;100098.47;;;40.78;12.73
72961;BME280;61141;46.204;19.774;2022-07-23T13:17:16;100093.00;;;40.90;12.68
72961;BME280;61141;46.204;19.774;2022-07-23T13:20:22;100099.88;;;40.70;12.43
72961;BME280;61141;46.204;19.774;2022-07-23T13:23:26;100094.53;;;40.34;12.36
72961;BME280;61141;46.204;19.774;2022-07-23T13:26:31;100091.09;;;40.68;12.48
72961;BME280;61141;46.204;19.774;2022-07-23T13:29:34;100085.03;;;40.81;12.28
72961;BME280;61141;46.204;19.774;2022-07-23T13:32:38;100082.44;;;40.03;12.58
72961;BME280;61141;46.204;19.774;2022-07-23T13:35:41;100078.19;;;40.76;12.37
72961;BME280;61141;46.204;19.774;2022-07-23T13:38:47;100073.63;;;40.09;12.70
72961;BME280;61141;46.204;19.774;2022-07-23T13:41:49;100083.47;;;40.87;12.28
72961;BME280;61141;46.204;19.774;2022-07-23T13:44:54;100071.56;;;40.91;12.25
72961;BME280;61141;46.204;19.774;2022-07-23T13:47:57;100071.91;;;41.37;11.93
72961;BME280;61141;46.204;19.774;2022-07-23T13:51:01;100057.69;;;41.39;11.80
72961;BME280;61141;46.204;19.774;2022-07-23T13:54:04;100083.19;;;41.18;11.89
72961;BME280;61141;46.204;19.774;2022-07-23T13:57:10;100068.66;;;40.66;11.86
72961;BME280;61141;46.204;19.774;2022-07-23T14:00:14;100062.91;;;40.66;11.95
72961;BME280;61141;46.204;19.774;2022-07-23T14:03:37;100060.50;;;40.55;12.00
72961;BME280;61141;46.204;19.774;2022-07-23T14:06:41;100055.25;;;41.11;11.77
72961;BME280;61141;46.204;19.774;2022-07-23T14:09:44;100052.06;;;41.24;11.64
72961;BME280;61141;46.204;19.774;2022-07-23T14:12:47;100054.19;;;40.57;11.85
72961;BME280;61141;46.204;19.774;2022-07-23T14:15:51;100056.16;;;40.71;11.83
72961;BME280;61141;46.204;19.774;2022-07-23T14:18:54;100047.66;;;41.06;11.59
72961;BME280;61141;46.204;19.774;2022-07-23T14:21:57;100050.53;;;41.23;11.41
72961;BME280;61141;46.204;19.774;2022-07-23T14:25:00;100043.75;;;41.11;11.60
72961;BME280;61141;46.204;19.774;2022-07-23T14:28:04;100054.28;;;41.33;11.30
72961;BME280;61141;46.204;19.774;2022-07-23T14:31:07;100040.56;;;41.24;11.26
72961;BME280;61141;46.204;19.774;2022-07-23T14:34:23;100045.16;;;41.61;11.11
72961;BME280;61141;46.204;19.774;2022-07-23T14:37:29;100045.97;;;41.54;10.87
72961;BME280;61141;46.204;19.774;2022-07-23T14:40:33;100048.53;;;41.50;10.85
72961;BME280;61141;46.204;19.774;2022-07-23T14:43:37;100038.06;;;41.45;10.79
72961;BME280;61141;46.204;19.774;2022-07-23T14:46:40;100034.16;;;41.50;10.83
72961;BME280;61141;46.204;19.774;2022-07-23T14:49:44;100022.47;;;41.31;11.07
72961;BME280;61141;46.204;19.774;2022-07-23T14:52:50;100020.75;;;41.11;11.11
72961;BME280;61141;46.204;19.774;2022-07-23T14:55:53;100028.06;;;41.29;11.12
72961;BME280;61141;46.204;19.774;2022-07-23T14:58:57;100030.91;;;41.63;10.90
72961;BME280;61141;46.204;19.774;2022-07-23T15:02:00;100022.91;;;41.44;10.75
72961;BME280;61141;46.204;19.774;2022-07-23T15:05:04;100017.03;;;41.00;10.95
72961;BME280;61141;46.204;19.774;2022-07-23T15:08:09;100010.97;;;41.31;10.82
72961;BME280;61141;46.204;19.774;2022-07-23T15:11:12;100002.00;;;41.10;11.01
72961;BME280;61141;46.204;19.774;2022-07-23T15:14:16;100007.84;;;40.77;11.14
72961;BME280;61141;46.204;19.774;2022-07-23T15:17:32;100006.63;;;40.63;11.20
72961;BME280;61141;46.204;19.774;2022-07-23T15:20:35;99996.50;;;41.04;11.00
72961;BME280;61141;46.204;19.774;2022-07-23T15:23:42;99997.22;;;40.87;11.16
72961;BME280;61141;46.204;19.774;2022-07-23T15:26:46;99992.38;;;40.73;11.51
72961;BME280;61141;46.204;19.774;2022-07-23T15:29:50;99986.28;;;40.86;11.24
72961;BME280;61141;46.204;19.774;2022-07-23T15:32:52;99975.78;;;41.06;11.11
72961;BME280;61141;46.204;19.774;2022-07-23T15:35:56;99968.94;;;40.59;11.34
72961;BME280;61141;46.204;19.774;2022-07-23T15:39:00;99968.88;;;40.42;11.40
72961;BME280;61141;46.204;19.774;2022-07-23T15:42:05;99957.53;;;40.44;11.56
72961;BME280;61141;46.204;19.774;2022-07-23T15:45:16;99957.31;;;40.91;11.49
72961;BME280;61141;46.204;19.774;2022-07-23T15:48:20;99953.13;;;40.51;11.93
72961;BME280;61141;46.204;19.774;2022-07-23T15:51:23;99956.81;;;41.02;11.67
72961;BME280;61141;46.204;19.774;2022-07-23T15:54:27;99957.50;;;41.11;11.69
72961;BME280;61141;46.204;19.774;2022-07-23T15:57:29;99966.28;;;41.13;11.71
72961;BME280;61141;46.204;19.774;2022-07-23T16:00:34;99965.31;;;40.59;12.00
72961;BME280;61141;46.204;19.774;2022-07-23T16:03:37;99964.63;;;40.92;11.49
72961;BME280;61141;46.204;19.774;2022-07-23T16:06:40;99959.31;;;40.64;11.98
72961;BME280;61141;46.204;19.774;2022-07-23T16:09:44;99973.25;;;40.85;11.96
72961;BME280;61141;46.204;19.774;2022-07-23T16:12:47;99974.56;;;40.50;12.04
72961;BME280;61141;46.204;19.774;2022-07-23T16:15:51;99972.78;;;40.79;11.99
72961;BME280;61141;46.204;19.774;2022-07-23T16:18:55;99975.44;;;40.60;12.02
72961;BME280;61141;46.204;19.774;2022-07-23T16:21:59;99975.38;;;40.67;11.96
72961;BME280;61141;46.204;19.774;2022-07-23T16:25:06;99977.84;;;40.46;12.09
72961;BME280;61141;46.204;19.774;2022-07-23T16:28:09;99979.66;;;40.34;12.03
72961;BME280;61141;46.204;19.774;2022-07-23T16:31:13;99981.38;;;40.05;12.22